Main page
METAR-TAF:

METAR-TAF

Airports :

Béziers, France

Béziers Cap d'Agde Airport

latitude: 43-19N, longitude: 003-21E, elevation: 17 m

Current weather observation

The report was made 36 minutes ago, at 01:30 UTC
Wind 5 kt from the Northeast
Temperature 15°C
Humidity 82%
Pressure 1017 hPa
Visibility 10 km or more
no clouds below 1500 m and no cumulonimbus

METAR: LFMU 290130Z AUTO 05005KT CAVOK 15/12 Q1017

Time: 04:06 (02:06 UTC)

Forecast

The report was made 12 hours and 6 minutes ago, at 14:00 UTC
Forecast valid from 28 at 15 UTC to 29 at 15 UTC
Wind 10 kt from the East/Southeast
Visibility 10 km or more
no clouds below 1500 m and no cumulonimbus
Becoming
from 28 at 19 UTC to 28 at 21 UTC
Wind 5 kt from the East/Northeast
Temporary
from 28 at 23 UTC to 29 at 06 UTC
Broken clouds at a height of 500 ft
Probability 30% :
Temporary
from 29 at 00 UTC to 29 at 05 UTC
Visibility: 4000 m
mist

TAF: LFMU 281400Z 2815/2915 12010KT CAVOK BECMG 2819/2821 06005KT TEMPO 2823/2906 BKN005 PROB30 TEMPO 2900/2905 4000 BR

Weather observations and forecasts of more than 4000 airports (METAR and TAF reports).

The available stations are represented by yellow and red dots on the map.

Hover mouse over dot to see the name of the station.

Then click to see weather observations and forecasts.

To change the map : click on the green buttons with a black cross to zoom in, on the green button with a dash to zoom out, or on the green arrows for adjacent maps.


METAR-TAF: